Beatty, Oregon
Current Conditions -  °F | °C
As of 6:53 AM on Friday 19 Dec 2014 (Local Time) from KLMT Reporting Station
Light Rain Light Rain  
Wind Chill: 30°   Ceiling: 1500
Heat Index: 35°   Visibility: 10mi
Dew Point: 33°   Wind: 6mph
Humidity: 92%   Direction: 310°NW
Pressure: 29.98"   Gusts: NA
Location:  42.44°N, 121.27°W
Report Text: KLMT 191453Z 31005KT 10SM -RA OVC015 02/01 A2998 RMK AO2 RAB46 SLP154 P0000 60009 T00170006 53003
Loading
Personal Weather Stations






























Interactive Weather Map New forecast layout! Learn more

10-Day Weather Forecast

Advertisements
Track Severe Weather on mobile